コロンボ の空港の天気 - METARとTAF

バンダラナイケ国際空港 ( VCBI / CMB ) - スリランカ コロンボ
飛行場実況気象(Metar)
観測時間03/29 01:40 +0530 (03/28 20:10 UTC)
風向・風速東 2m/s
視程9000m
天気現象
全天の4割程度の雲 雲底高度 490m
気温26℃
湿度84%
気圧1011hPa
METARVCBI 282010Z 09004KT 050V120 9000 SCT016 26/23 Q1011 NOSIG
過去の天気等 Google飛行場航空写真 Wunderground天気予報

過去48時間のMETAR

飛行場予報(TAF)
発表時間: 3/28 21:10 +0530 (3/28 15:40 UTC)
予報対象時間: 28日23時 +0530 ~ 30日5時 +0530
風向・風速不定 3m/s
視程10km以上
少しの雲 雲底高度 550m
29日8時 +0530 ~ 29日9時 +0530 に徐々に
風向・風速西 5m/s
29日15時 +0530 ~ 29日20時 +0530 に 確率 40% で一時的に
視程7,000m
TAF VCBI 281540Z 2818/2924 VRB05KT 9999 FEW018 TX32/2908Z TN25/2900Z
BECMG 2903/2904 26010KT
PROB40 TEMPO 2910/2915 7000 -TSRA/SHRA SCT016 FEW020CB BKN080